sensor_id;sensor_type;location;lat;lon;timestamp;P1;durP1;ratioP1;P2;durP2;ratioP2
15363;SDS011;7781;49.690;6.472;2023-06-22T00:00:55;8.20;;;7.17;;
15363;SDS011;7781;49.690;6.472;2023-06-22T00:03:28;9.07;;;7.07;;
15363;SDS011;7781;49.690;6.472;2023-06-22T00:05:57;9.80;;;7.17;;
15363;SDS011;7781;49.690;6.472;2023-06-22T00:08:25;10.53;;;7.73;;
15363;SDS011;7781;49.690;6.472;2023-06-22T00:10:54;10.93;;;8.10;;
15363;SDS011;7781;49.690;6.472;2023-06-22T00:13:22;8.10;;;7.13;;
15363;SDS011;7781;49.690;6.472;2023-06-22T00:15:51;12.63;;;8.57;;
15363;SDS011;7781;49.690;6.472;2023-06-22T00:18:20;15.00;;;8.17;;
15363;SDS011;7781;49.690;6.472;2023-06-22T00:20:50;10.73;;;8.43;;
15363;SDS011;7781;49.690;6.472;2023-06-22T00:23:22;16.87;;;7.80;;
15363;SDS011;7781;49.690;6.472;2023-06-22T00:25:52;13.00;;;7.77;;
15363;SDS011;7781;49.690;6.472;2023-06-22T00:28:21;9.80;;;7.37;;
15363;SDS011;7781;49.690;6.472;2023-06-22T00:30:50;9.23;;;8.27;;
15363;SDS011;7781;49.690;6.472;2023-06-22T00:33:20;16.57;;;8.17;;
15363;SDS011;7781;49.690;6.472;2023-06-22T00:35:50;11.63;;;7.83;;
15363;SDS011;7781;49.690;6.472;2023-06-22T00:38:20;8.90;;;8.00;;
15363;SDS011;7781;49.690;6.472;2023-06-22T00:40:48;14.23;;;8.13;;
15363;SDS011;7781;49.690;6.472;2023-06-22T00:43:18;11.30;;;8.30;;
15363;SDS011;7781;49.690;6.472;2023-06-22T00:45:47;9.70;;;8.70;;
15363;SDS011;7781;49.690;6.472;2023-06-22T00:48:17;10.63;;;8.30;;
15363;SDS011;7781;49.690;6.472;2023-06-22T00:50:47;10.83;;;8.60;;
15363;SDS011;7781;49.690;6.472;2023-06-22T00:53:18;11.23;;;9.13;;
15363;SDS011;7781;49.690;6.472;2023-06-22T00:55:48;9.90;;;8.53;;
15363;SDS011;7781;49.690;6.472;2023-06-22T00:58:18;13.50;;;8.23;;
15363;SDS011;7781;49.690;6.472;2023-06-22T01:00:48;11.30;;;8.80;;
15363;SDS011;7781;49.690;6.472;2023-06-22T01:03:17;10.80;;;8.33;;
15363;SDS011;7781;49.690;6.472;2023-06-22T01:05:47;12.40;;;9.60;;
15363;SDS011;7781;49.690;6.472;2023-06-22T01:08:22;9.97;;;8.50;;
15363;SDS011;7781;49.690;6.472;2023-06-22T01:11:00;21.70;;;9.23;;
15363;SDS011;7781;49.690;6.472;2023-06-22T01:13:32;10.47;;;7.93;;
15363;SDS011;7781;49.690;6.472;2023-06-22T01:16:10;15.43;;;8.83;;
15363;SDS011;7781;49.690;6.472;2023-06-22T01:18:44;9.97;;;8.77;;
15363;SDS011;7781;49.690;6.472;2023-06-22T01:21:16;10.10;;;9.00;;
15363;SDS011;7781;49.690;6.472;2023-06-22T01:26:47;8.87;;;7.30;;
15363;SDS011;7781;49.690;6.472;2023-06-22T01:29:27;12.57;;;9.23;;
15363;SDS011;7781;49.690;6.472;2023-06-22T01:31:56;11.20;;;8.67;;
15363;SDS011;7781;49.690;6.472;2023-06-22T01:34:27;10.37;;;8.73;;
15363;SDS011;7781;49.690;6.472;2023-06-22T01:36:58;11.77;;;10.60;;
15363;SDS011;7781;49.690;6.472;2023-06-22T01:39:29;14.30;;;10.10;;
15363;SDS011;7781;49.690;6.472;2023-06-22T01:41:58;12.43;;;9.57;;
15363;SDS011;7781;49.690;6.472;2023-06-22T01:44:28;10.70;;;8.93;;
15363;SDS011;7781;49.690;6.472;2023-06-22T01:46:57;13.97;;;8.80;;
15363;SDS011;7781;49.690;6.472;2023-06-22T01:49:26;15.40;;;9.37;;
15363;SDS011;7781;49.690;6.472;2023-06-22T01:51:56;13.13;;;8.70;;
15363;SDS011;7781;49.690;6.472;2023-06-22T01:54:27;10.30;;;8.77;;
15363;SDS011;7781;49.690;6.472;2023-06-22T01:56:55;9.00;;;7.90;;
15363;SDS011;7781;49.690;6.472;2023-06-22T01:59:25;10.43;;;8.50;;
15363;SDS011;7781;49.690;6.472;2023-06-22T02:02:00;11.03;;;9.13;;
15363;SDS011;7781;49.690;6.472;2023-06-22T02:04:34;10.10;;;8.83;;
15363;SDS011;7781;49.690;6.472;2023-06-22T02:07:05;16.70;;;10.00;;
15363;SDS011;7781;49.690;6.472;2023-06-22T02:09:40;11.00;;;9.83;;
15363;SDS011;7781;49.690;6.472;2023-06-22T02:12:12;12.70;;;9.70;;
15363;SDS011;7781;49.690;6.472;2023-06-22T02:14:44;13.13;;;9.47;;
15363;SDS011;7781;49.690;6.472;2023-06-22T02:17:16;11.07;;;10.00;;
15363;SDS011;7781;49.690;6.472;2023-06-22T02:20:02;10.53;;;9.40;;
15363;SDS011;7781;49.690;6.472;2023-06-22T02:22:35;13.53;;;9.60;;
15363;SDS011;7781;49.690;6.472;2023-06-22T02:25:03;13.97;;;9.17;;
15363;SDS011;7781;49.690;6.472;2023-06-22T02:27:31;11.47;;;10.10;;
15363;SDS011;7781;49.690;6.472;2023-06-22T02:30:00;13.03;;;10.40;;
15363;SDS011;7781;49.690;6.472;2023-06-22T02:32:29;11.73;;;10.10;;
15363;SDS011;7781;49.690;6.472;2023-06-22T02:35:00;13.27;;;10.40;;
15363;SDS011;7781;49.690;6.472;2023-06-22T02:37:30;12.50;;;9.40;;
15363;SDS011;7781;49.690;6.472;2023-06-22T02:39:58;13.90;;;10.40;;
15363;SDS011;7781;49.690;6.472;2023-06-22T02:42:28;14.00;;;10.57;;
15363;SDS011;7781;49.690;6.472;2023-06-22T02:44:56;15.20;;;11.43;;
15363;SDS011;7781;49.690;6.472;2023-06-22T02:47:25;14.57;;;9.97;;
15363;SDS011;7781;49.690;6.472;2023-06-22T02:54:30;11.53;;;10.37;;
15363;SDS011;7781;49.690;6.472;2023-06-22T02:56:59;15.37;;;12.50;;
15363;SDS011;7781;49.690;6.472;2023-06-22T02:59:30;13.97;;;11.20;;
15363;SDS011;7781;49.690;6.472;2023-06-22T03:02:08;14.63;;;11.53;;
15363;SDS011;7781;49.690;6.472;2023-06-22T03:04:38;14.83;;;10.97;;
15363;SDS011;7781;49.690;6.472;2023-06-22T03:07:07;14.50;;;11.70;;
15363;SDS011;7781;49.690;6.472;2023-06-22T03:09:38;17.73;;;11.10;;
15363;SDS011;7781;49.690;6.472;2023-06-22T03:12:09;13.83;;;10.90;;
15363;SDS011;7781;49.690;6.472;2023-06-22T03:14:52;17.13;;;11.07;;
15363;SDS011;7781;49.690;6.472;2023-06-22T03:17:21;12.40;;;11.00;;
15363;SDS011;7781;49.690;6.472;2023-06-22T03:19:51;13.07;;;10.40;;
15363;SDS011;7781;49.690;6.472;2023-06-22T03:22:21;11.00;;;8.90;;
15363;SDS011;7781;49.690;6.472;2023-06-22T03:24:52;11.67;;;10.07;;
15363;SDS011;7781;49.690;6.472;2023-06-22T03:27:21;11.80;;;9.23;;
15363;SDS011;7781;49.690;6.472;2023-06-22T03:29:49;13.63;;;10.10;;
15363;SDS011;7781;49.690;6.472;2023-06-22T03:32:18;12.63;;;10.30;;
15363;SDS011;7781;49.690;6.472;2023-06-22T03:34:48;14.30;;;10.53;;
15363;SDS011;7781;49.690;6.472;2023-06-22T03:37:17;15.90;;;10.80;;
15363;SDS011;7781;49.690;6.472;2023-06-22T03:39:48;12.50;;;10.00;;
15363;SDS011;7781;49.690;6.472;2023-06-22T03:42:18;11.93;;;8.93;;
15363;SDS011;7781;49.690;6.472;2023-06-22T03:44:47;11.37;;;9.60;;
15363;SDS011;7781;49.690;6.472;2023-06-22T03:47:15;12.50;;;9.90;;
15363;SDS011;7781;49.690;6.472;2023-06-22T03:49:44;14.77;;;9.87;;
15363;SDS011;7781;49.690;6.472;2023-06-22T03:52:13;13.63;;;9.30;;
15363;SDS011;7781;49.690;6.472;2023-06-22T03:54:41;16.20;;;10.70;;
15363;SDS011;7781;49.690;6.472;2023-06-22T03:57:10;12.20;;;9.93;;
15363;SDS011;7781;49.690;6.472;2023-06-22T03:59:41;13.20;;;10.37;;
15363;SDS011;7781;49.690;6.472;2023-06-22T04:02:10;16.10;;;11.10;;
15363;SDS011;7781;49.690;6.472;2023-06-22T04:04:38;18.60;;;9.20;;
15363;SDS011;7781;49.690;6.472;2023-06-22T04:07:08;12.80;;;9.87;;
15363;SDS011;7781;49.690;6.472;2023-06-22T04:09:37;13.73;;;9.87;;
15363;SDS011;7781;49.690;6.472;2023-06-22T04:12:06;13.10;;;10.07;;
15363;SDS011;7781;49.690;6.472;2023-06-22T04:14:36;12.73;;;10.63;;
15363;SDS011;7781;49.690;6.472;2023-06-22T04:17:06;18.53;;;9.90;;
15363;SDS011;7781;49.690;6.472;2023-06-22T04:19:35;12.83;;;10.07;;
15363;SDS011;7781;49.690;6.472;2023-06-22T04:22:04;13.07;;;10.03;;
15363;SDS011;7781;49.690;6.472;2023-06-22T04:24:34;13.50;;;10.50;;
15363;SDS011;7781;49.690;6.472;2023-06-22T04:27:04;12.87;;;10.67;;
15363;SDS011;7781;49.690;6.472;2023-06-22T04:29:33;18.50;;;11.00;;
15363;SDS011;7781;49.690;6.472;2023-06-22T04:32:02;11.53;;;10.20;;
15363;SDS011;7781;49.690;6.472;2023-06-22T04:34:35;11.07;;;9.47;;
15363;SDS011;7781;49.690;6.472;2023-06-22T04:37:04;15.60;;;11.53;;
15363;SDS011;7781;49.690;6.472;2023-06-22T04:39:33;12.20;;;11.00;;
15363;SDS011;7781;49.690;6.472;2023-06-22T04:42:03;12.90;;;10.60;;
15363;SDS011;7781;49.690;6.472;2023-06-22T04:44:34;11.90;;;10.47;;
15363;SDS011;7781;49.690;6.472;2023-06-22T04:47:03;13.07;;;11.47;;
15363;SDS011;7781;49.690;6.472;2023-06-22T04:49:36;13.57;;;10.57;;
15363;SDS011;7781;49.690;6.472;2023-06-22T04:52:07;13.27;;;11.07;;
15363;SDS011;7781;49.690;6.472;2023-06-22T04:54:37;13.13;;;11.40;;
15363;SDS011;7781;49.690;6.472;2023-06-22T04:57:14;13.37;;;10.83;;
15363;SDS011;7781;49.690;6.472;2023-06-22T04:59:44;16.40;;;11.27;;
15363;SDS011;7781;49.690;6.472;2023-06-22T05:02:13;20.33;;;10.80;;
15363;SDS011;7781;49.690;6.472;2023-06-22T05:04:45;14.43;;;10.53;;
15363;SDS011;7781;49.690;6.472;2023-06-22T05:07:18;16.70;;;11.03;;
15363;SDS011;7781;49.690;6.472;2023-06-22T05:09:46;14.93;;;11.10;;
15363;SDS011;7781;49.690;6.472;2023-06-22T05:12:16;15.90;;;9.90;;
15363;SDS011;7781;49.690;6.472;2023-06-22T05:14:44;13.37;;;11.40;;
15363;SDS011;7781;49.690;6.472;2023-06-22T05:17:13;13.30;;;11.83;;
15363;SDS011;7781;49.690;6.472;2023-06-22T05:19:47;12.93;;;11.47;;
15363;SDS011;7781;49.690;6.472;2023-06-22T05:22:15;13.23;;;10.13;;
15363;SDS011;7781;49.690;6.472;2023-06-22T05:24:47;13.10;;;10.50;;
15363;SDS011;7781;49.690;6.472;2023-06-22T05:27:17;17.50;;;11.80;;
15363;SDS011;7781;49.690;6.472;2023-06-22T05:29:45;24.73;;;10.80;;
15363;SDS011;7781;49.690;6.472;2023-06-22T05:32:14;13.53;;;10.50;;
15363;SDS011;7781;49.690;6.472;2023-06-22T05:34:42;13.57;;;10.07;;
15363;SDS011;7781;49.690;6.472;2023-06-22T05:37:12;16.73;;;10.33;;
15363;SDS011;7781;49.690;6.472;2023-06-22T05:39:41;12.67;;;10.40;;
15363;SDS011;7781;49.690;6.472;2023-06-22T05:42:10;13.93;;;10.73;;
15363;SDS011;7781;49.690;6.472;2023-06-22T05:44:38;15.87;;;10.23;;
15363;SDS011;7781;49.690;6.472;2023-06-22T05:47:07;12.57;;;10.37;;
15363;SDS011;7781;49.690;6.472;2023-06-22T05:49:36;13.87;;;9.53;;
15363;SDS011;7781;49.690;6.472;2023-06-22T05:52:04;12.73;;;10.67;;
15363;SDS011;7781;49.690;6.472;2023-06-22T05:54:34;17.23;;;9.70;;
15363;SDS011;7781;49.690;6.472;2023-06-22T05:57:05;15.50;;;10.30;;
15363;SDS011;7781;49.690;6.472;2023-06-22T05:59:34;14.53;;;10.47;;
15363;SDS011;7781;49.690;6.472;2023-06-22T06:02:02;14.30;;;10.60;;
15363;SDS011;7781;49.690;6.472;2023-06-22T06:04:31;23.33;;;9.53;;
15363;SDS011;7781;49.690;6.472;2023-06-22T06:07:01;13.57;;;9.07;;
15363;SDS011;7781;49.690;6.472;2023-06-22T06:09:29;14.90;;;9.73;;
15363;SDS011;7781;49.690;6.472;2023-06-22T06:11:59;14.63;;;9.57;;
15363;SDS011;7781;49.690;6.472;2023-06-22T06:14:30;17.97;;;10.90;;
15363;SDS011;7781;49.690;6.472;2023-06-22T06:17:00;11.40;;;9.63;;
15363;SDS011;7781;49.690;6.472;2023-06-22T06:19:29;13.60;;;9.90;;
15363;SDS011;7781;49.690;6.472;2023-06-22T06:21:57;10.30;;;8.67;;
15363;SDS011;7781;49.690;6.472;2023-06-22T06:24:26;14.83;;;10.20;;
15363;SDS011;7781;49.690;6.472;2023-06-22T06:26:55;15.20;;;9.80;;
15363;SDS011;7781;49.690;6.472;2023-06-22T06:29:25;16.30;;;9.90;;
15363;SDS011;7781;49.690;6.472;2023-06-22T06:31:54;14.60;;;9.43;;
15363;SDS011;7781;49.690;6.472;2023-06-22T06:34:23;12.60;;;9.80;;
15363;SDS011;7781;49.690;6.472;2023-06-22T06:36:53;14.70;;;9.23;;
15363;SDS011;7781;49.690;6.472;2023-06-22T06:39:21;10.40;;;9.30;;
15363;SDS011;7781;49.690;6.472;2023-06-22T06:41:53;11.37;;;8.60;;
15363;SDS011;7781;49.690;6.472;2023-06-22T06:44:22;14.10;;;8.50;;
15363;SDS011;7781;49.690;6.472;2023-06-22T06:46:52;9.97;;;7.80;;
15363;SDS011;7781;49.690;6.472;2023-06-22T06:49:22;8.90;;;8.00;;
15363;SDS011;7781;49.690;6.472;2023-06-22T06:51:52;10.53;;;7.80;;
15363;SDS011;7781;49.690;6.472;2023-06-22T06:54:23;15.27;;;7.80;;
15363;SDS011;7781;49.690;6.472;2023-06-22T06:56:55;10.93;;;8.20;;
15363;SDS011;7781;49.690;6.472;2023-06-22T06:59:23;8.57;;;7.40;;
15363;SDS011;7781;49.690;6.472;2023-06-22T07:01:53;9.70;;;7.03;;
15363;SDS011;7781;49.690;6.472;2023-06-22T07:04:23;9.80;;;7.97;;
15363;SDS011;7781;49.690;6.472;2023-06-22T07:06:53;8.93;;;7.90;;
15363;SDS011;7781;49.690;6.472;2023-06-22T07:09:21;12.70;;;7.80;;
15363;SDS011;7781;49.690;6.472;2023-06-22T07:11:50;13.17;;;8.70;;
15363;SDS011;7781;49.690;6.472;2023-06-22T07:14:18;11.60;;;7.97;;
15363;SDS011;7781;49.690;6.472;2023-06-22T07:16:49;8.80;;;7.07;;
15363;SDS011;7781;49.690;6.472;2023-06-22T07:19:25;10.73;;;7.73;;
15363;SDS011;7781;49.690;6.472;2023-06-22T07:21:54;9.57;;;7.70;;
15363;SDS011;7781;49.690;6.472;2023-06-22T07:24:23;9.97;;;7.80;;
15363;SDS011;7781;49.690;6.472;2023-06-22T07:26:53;8.47;;;7.03;;
15363;SDS011;7781;49.690;6.472;2023-06-22T07:29:25;8.50;;;7.57;;
15363;SDS011;7781;49.690;6.472;2023-06-22T07:31:54;8.83;;;7.10;;
15363;SDS011;7781;49.690;6.472;2023-06-22T07:34:24;12.83;;;7.50;;
15363;SDS011;7781;49.690;6.472;2023-06-22T07:36:53;8.70;;;7.17;;
15363;SDS011;7781;49.690;6.472;2023-06-22T07:39:22;7.70;;;6.90;;
15363;SDS011;7781;49.690;6.472;2023-06-22T07:41:52;10.03;;;7.97;;
15363;SDS011;7781;49.690;6.472;2023-06-22T07:44:22;9.43;;;7.30;;
15363;SDS011;7781;49.690;6.472;2023-06-22T07:46:50;16.50;;;7.90;;
15363;SDS011;7781;49.690;6.472;2023-06-22T07:49:19;7.93;;;6.90;;
15363;SDS011;7781;49.690;6.472;2023-06-22T07:51:49;9.70;;;6.87;;
15363;SDS011;7781;49.690;6.472;2023-06-22T07:54:18;11.37;;;6.17;;
15363;SDS011;7781;49.690;6.472;2023-06-22T07:56:46;12.33;;;6.97;;
15363;SDS011;7781;49.690;6.472;2023-06-22T07:59:15;10.97;;;7.63;;
15363;SDS011;7781;49.690;6.472;2023-06-22T08:01:43;9.40;;;7.30;;
15363;SDS011;7781;49.690;6.472;2023-06-22T08:04:14;10.83;;;7.40;;
15363;SDS011;7781;49.690;6.472;2023-06-22T08:06:43;10.20;;;7.00;;
15363;SDS011;7781;49.690;6.472;2023-06-22T08:09:13;10.83;;;7.33;;
15363;SDS011;7781;49.690;6.472;2023-06-22T08:11:42;7.83;;;6.90;;
15363;SDS011;7781;49.690;6.472;2023-06-22T08:14:10;10.00;;;6.77;;
15363;SDS011;7781;49.690;6.472;2023-06-22T08:16:40;11.97;;;7.77;;
15363;SDS011;7781;49.690;6.472;2023-06-22T08:19:09;8.43;;;7.13;;
15363;SDS011;7781;49.690;6.472;2023-06-22T08:21:38;8.10;;;7.30;;
15363;SDS011;7781;49.690;6.472;2023-06-22T08:24:08;9.77;;;7.30;;
15363;SDS011;7781;49.690;6.472;2023-06-22T08:26:40;14.60;;;6.77;;
15363;SDS011;7781;49.690;6.472;2023-06-22T08:29:08;10.17;;;7.77;;
15363;SDS011;7781;49.690;6.472;2023-06-22T08:31:37;8.30;;;6.83;;
15363;SDS011;7781;49.690;6.472;2023-06-22T08:34:05;9.43;;;7.27;;
15363;SDS011;7781;49.690;6.472;2023-06-22T08:36:34;11.00;;;7.40;;
15363;SDS011;7781;49.690;6.472;2023-06-22T08:39:07;9.40;;;7.40;;
15363;SDS011;7781;49.690;6.472;2023-06-22T08:41:36;10.10;;;7.30;;
15363;SDS011;7781;49.690;6.472;2023-06-22T08:44:07;18.87;;;6.97;;
15363;SDS011;7781;49.690;6.472;2023-06-22T08:46:36;8.47;;;6.43;;
15363;SDS011;7781;49.690;6.472;2023-06-22T08:49:08;10.23;;;7.37;;
15363;SDS011;7781;49.690;6.472;2023-06-22T08:51:37;7.60;;;6.80;;
15363;SDS011;7781;49.690;6.472;2023-06-22T08:54:05;9.47;;;6.90;;
15363;SDS011;7781;49.690;6.472;2023-06-22T08:56:34;8.30;;;6.60;;
15363;SDS011;7781;49.690;6.472;2023-06-22T08:59:02;14.43;;;7.50;;
15363;SDS011;7781;49.690;6.472;2023-06-22T09:01:36;13.93;;;8.83;;
15363;SDS011;7781;49.690;6.472;2023-06-22T09:04:06;19.20;;;10.13;;
15363;SDS011;7781;49.690;6.472;2023-06-22T09:06:37;19.23;;;10.53;;
15363;SDS011;7781;49.690;6.472;2023-06-22T09:09:12;16.47;;;10.80;;
15363;SDS011;7781;49.690;6.472;2023-06-22T09:11:41;15.43;;;10.67;;
15363;SDS011;7781;49.690;6.472;2023-06-22T09:14:09;13.40;;;10.07;;
15363;SDS011;7781;49.690;6.472;2023-06-22T09:16:40;13.90;;;11.63;;
15363;SDS011;7781;49.690;6.472;2023-06-22T09:19:11;19.53;;;11.40;;
15363;SDS011;7781;49.690;6.472;2023-06-22T09:21:39;21.93;;;11.17;;
15363;SDS011;7781;49.690;6.472;2023-06-22T09:24:08;14.00;;;11.27;;
15363;SDS011;7781;49.690;6.472;2023-06-22T09:26:37;25.90;;;11.63;;
15363;SDS011;7781;49.690;6.472;2023-06-22T09:29:06;24.93;;;11.93;;
15363;SDS011;7781;49.690;6.472;2023-06-22T09:31:34;14.70;;;10.40;;
15363;SDS011;7781;49.690;6.472;2023-06-22T09:34:05;16.77;;;11.73;;
15363;SDS011;7781;49.690;6.472;2023-06-22T09:36:34;15.70;;;11.00;;
15363;SDS011;7781;49.690;6.472;2023-06-22T09:39:03;19.10;;;11.20;;
15363;SDS011;7781;49.690;6.472;2023-06-22T09:41:34;16.83;;;10.37;;
15363;SDS011;7781;49.690;6.472;2023-06-22T09:44:04;18.47;;;10.23;;
15363;SDS011;7781;49.690;6.472;2023-06-22T09:46:33;13.17;;;10.50;;
15363;SDS011;7781;49.690;6.472;2023-06-22T09:49:01;15.27;;;10.50;;
15363;SDS011;7781;49.690;6.472;2023-06-22T09:51:32;18.37;;;10.50;;
15363;SDS011;7781;49.690;6.472;2023-06-22T09:54:00;15.93;;;10.40;;
15363;SDS011;7781;49.690;6.472;2023-06-22T09:56:29;16.90;;;11.20;;
15363;SDS011;7781;49.690;6.472;2023-06-22T09:58:58;12.67;;;10.27;;
15363;SDS011;7781;49.690;6.472;2023-06-22T10:01:43;14.83;;;10.97;;
15363;SDS011;7781;49.690;6.472;2023-06-22T10:04:12;14.87;;;10.17;;
15363;SDS011;7781;49.690;6.472;2023-06-22T10:06:42;12.63;;;10.17;;
15363;SDS011;7781;49.690;6.472;2023-06-22T10:09:10;11.33;;;10.13;;
15363;SDS011;7781;49.690;6.472;2023-06-22T10:11:39;13.80;;;10.27;;
15363;SDS011;7781;49.690;6.472;2023-06-22T10:14:08;15.70;;;11.50;;
15363;SDS011;7781;49.690;6.472;2023-06-22T10:16:37;13.23;;;10.60;;
15363;SDS011;7781;49.690;6.472;2023-06-22T10:19:08;11.57;;;9.57;;
15363;SDS011;7781;49.690;6.472;2023-06-22T10:21:36;11.73;;;9.57;;
15363;SDS011;7781;49.690;6.472;2023-06-22T10:24:07;15.40;;;10.50;;
15363;SDS011;7781;49.690;6.472;2023-06-22T10:26:36;11.27;;;10.03;;
15363;SDS011;7781;49.690;6.472;2023-06-22T10:29:05;12.63;;;9.60;;
15363;SDS011;7781;49.690;6.472;2023-06-22T10:31:43;13.03;;;9.90;;
15363;SDS011;7781;49.690;6.472;2023-06-22T10:34:12;13.63;;;9.70;;
15363;SDS011;7781;49.690;6.472;2023-06-22T10:36:40;12.87;;;9.50;;
15363;SDS011;7781;49.690;6.472;2023-06-22T10:39:10;13.97;;;10.17;;
15363;SDS011;7781;49.690;6.472;2023-06-22T10:41:38;12.80;;;9.90;;
15363;SDS011;7781;49.690;6.472;2023-06-22T10:44:07;11.63;;;10.30;;
15363;SDS011;7781;49.690;6.472;2023-06-22T10:46:36;10.83;;;9.73;;
15363;SDS011;7781;49.690;6.472;2023-06-22T10:49:05;10.43;;;8.60;;
15363;SDS011;7781;49.690;6.472;2023-06-22T10:51:33;12.60;;;10.00;;
15363;SDS011;7781;49.690;6.472;2023-06-22T10:54:03;13.20;;;8.93;;
15363;SDS011;7781;49.690;6.472;2023-06-22T10:56:34;11.00;;;9.90;;
15363;SDS011;7781;49.690;6.472;2023-06-22T10:59:05;11.07;;;9.70;;
15363;SDS011;7781;49.690;6.472;2023-06-22T11:01:33;15.67;;;9.53;;
15363;SDS011;7781;49.690;6.472;2023-06-22T11:04:03;12.90;;;10.40;;
15363;SDS011;7781;49.690;6.472;2023-06-22T11:06:32;16.43;;;9.90;;
15363;SDS011;7781;49.690;6.472;2023-06-22T11:09:01;11.63;;;9.43;;
15363;SDS011;7781;49.690;6.472;2023-06-22T11:11:51;13.93;;;9.20;;
15363;SDS011;7781;49.690;6.472;2023-06-22T11:14:20;9.70;;;8.70;;
15363;SDS011;7781;49.690;6.472;2023-06-22T11:16:49;10.50;;;8.47;;
15363;SDS011;7781;49.690;6.472;2023-06-22T11:19:17;11.33;;;7.83;;
15363;SDS011;7781;49.690;6.472;2023-06-22T11:21:47;9.60;;;8.07;;
15363;SDS011;7781;49.690;6.472;2023-06-22T11:24:15;10.10;;;8.17;;
15363;SDS011;7781;49.690;6.472;2023-06-22T11:26:45;8.90;;;8.00;;
15363;SDS011;7781;49.690;6.472;2023-06-22T11:29:15;9.43;;;8.00;;
15363;SDS011;7781;49.690;6.472;2023-06-22T11:32:02;11.50;;;7.87;;
15363;SDS011;7781;49.690;6.472;2023-06-22T11:34:32;8.83;;;7.63;;
15363;SDS011;7781;49.690;6.472;2023-06-22T11:37:01;12.07;;;8.63;;
15363;SDS011;7781;49.690;6.472;2023-06-22T11:39:29;8.60;;;7.70;;
15363;SDS011;7781;49.690;6.472;2023-06-22T11:42:08;11.67;;;7.70;;
15363;SDS011;7781;49.690;6.472;2023-06-22T11:44:38;12.30;;;7.97;;
15363;SDS011;7781;49.690;6.472;2023-06-22T11:47:09;12.13;;;7.43;;
15363;SDS011;7781;49.690;6.472;2023-06-22T11:49:38;8.37;;;7.47;;
15363;SDS011;7781;49.690;6.472;2023-06-22T11:52:06;14.00;;;7.30;;
15363;SDS011;7781;49.690;6.472;2023-06-22T11:54:35;8.73;;;7.70;;
15363;SDS011;7781;49.690;6.472;2023-06-22T11:57:05;10.43;;;7.40;;
15363;SDS011;7781;49.690;6.472;2023-06-22T11:59:34;10.33;;;7.17;;
15363;SDS011;7781;49.690;6.472;2023-06-22T12:02:04;8.90;;;7.20;;
15363;SDS011;7781;49.690;6.472;2023-06-22T12:04:35;8.07;;;7.17;;
15363;SDS011;7781;49.690;6.472;2023-06-22T12:07:04;8.90;;;7.17;;
15363;SDS011;7781;49.690;6.472;2023-06-22T12:09:33;8.00;;;6.60;;
15363;SDS011;7781;49.690;6.472;2023-06-22T12:12:01;9.40;;;7.00;;
15363;SDS011;7781;49.690;6.472;2023-06-22T12:14:32;8.33;;;6.90;;
15363;SDS011;7781;49.690;6.472;2023-06-22T12:17:01;8.20;;;7.20;;
15363;SDS011;7781;49.690;6.472;2023-06-22T12:19:31;9.43;;;6.63;;
15363;SDS011;7781;49.690;6.472;2023-06-22T12:21:59;7.27;;;6.20;;
15363;SDS011;7781;49.690;6.472;2023-06-22T12:24:28;8.83;;;6.20;;
15363;SDS011;7781;49.690;6.472;2023-06-22T12:26:56;11.20;;;6.17;;
15363;SDS011;7781;49.690;6.472;2023-06-22T12:29:24;8.47;;;6.27;;
15363;SDS011;7781;49.690;6.472;2023-06-22T12:31:53;14.00;;;6.37;;
15363;SDS011;7781;49.690;6.472;2023-06-22T12:34:21;8.60;;;7.30;;
15363;SDS011;7781;49.690;6.472;2023-06-22T12:36:51;10.03;;;6.73;;
15363;SDS011;7781;49.690;6.472;2023-06-22T12:39:21;9.93;;;7.00;;
15363;SDS011;7781;49.690;6.472;2023-06-22T12:41:49;7.43;;;6.40;;
15363;SDS011;7781;49.690;6.472;2023-06-22T12:44:18;8.60;;;5.80;;
15363;SDS011;7781;49.690;6.472;2023-06-22T12:46:47;10.33;;;6.40;;
15363;SDS011;7781;49.690;6.472;2023-06-22T12:49:16;7.33;;;6.57;;
15363;SDS011;7781;49.690;6.472;2023-06-22T12:51:45;8.83;;;6.30;;
15363;SDS011;7781;49.690;6.472;2023-06-22T12:54:15;13.40;;;7.20;;
15363;SDS011;7781;49.690;6.472;2023-06-22T12:56:43;9.07;;;6.37;;
15363;SDS011;7781;49.690;6.472;2023-06-22T12:59:12;10.00;;;7.00;;
15363;SDS011;7781;49.690;6.472;2023-06-22T13:01:40;11.07;;;6.83;;
15363;SDS011;7781;49.690;6.472;2023-06-22T13:04:10;8.43;;;6.57;;
15363;SDS011;7781;49.690;6.472;2023-06-22T13:06:41;13.40;;;6.77;;
15363;SDS011;7781;49.690;6.472;2023-06-22T13:09:09;15.10;;;8.47;;
15363;SDS011;7781;49.690;6.472;2023-06-22T13:11:42;13.10;;;8.73;;
15363;SDS011;7781;49.690;6.472;2023-06-22T13:14:11;25.00;;;11.40;;
15363;SDS011;7781;49.690;6.472;2023-06-22T13:16:40;21.73;;;7.07;;
15363;SDS011;7781;49.690;6.472;2023-06-22T13:19:09;10.57;;;3.70;;
15363;SDS011;7781;49.690;6.472;2023-06-22T13:21:38;10.70;;;3.70;;
15363;SDS011;7781;49.690;6.472;2023-06-22T13:24:07;4.90;;;3.70;;
15363;SDS011;7781;49.690;6.472;2023-06-22T13:26:36;7.60;;;3.47;;
15363;SDS011;7781;49.690;6.472;2023-06-22T13:29:06;7.63;;;4.50;;
15363;SDS011;7781;49.690;6.472;2023-06-22T13:31:34;10.67;;;4.30;;
15363;SDS011;7781;49.690;6.472;2023-06-22T13:34:03;7.93;;;4.37;;
15363;SDS011;7781;49.690;6.472;2023-06-22T13:36:32;10.43;;;4.53;;
15363;SDS011;7781;49.690;6.472;2023-06-22T13:39:00;11.33;;;4.33;;
15363;SDS011;7781;49.690;6.472;2023-06-22T13:41:29;9.97;;;4.27;;
15363;SDS011;7781;49.690;6.472;2023-06-22T13:43:57;8.50;;;4.10;;
15363;SDS011;7781;49.690;6.472;2023-06-22T13:46:28;6.70;;;4.10;;
15363;SDS011;7781;49.690;6.472;2023-06-22T13:48:57;9.60;;;4.40;;
15363;SDS011;7781;49.690;6.472;2023-06-22T13:51:26;7.67;;;4.23;;
15363;SDS011;7781;49.690;6.472;2023-06-22T13:53:55;7.83;;;4.20;;
15363;SDS011;7781;49.690;6.472;2023-06-22T13:56:24;10.20;;;3.70;;
15363;SDS011;7781;49.690;6.472;2023-06-22T13:58:52;10.70;;;4.23;;
15363;SDS011;7781;49.690;6.472;2023-06-22T14:01:21;9.60;;;3.90;;
15363;SDS011;7781;49.690;6.472;2023-06-22T14:03:51;9.90;;;3.50;;
15363;SDS011;7781;49.690;6.472;2023-06-22T14:06:20;8.70;;;4.07;;
15363;SDS011;7781;49.690;6.472;2023-06-22T14:08:49;11.00;;;3.47;;
15363;SDS011;7781;49.690;6.472;2023-06-22T14:11:18;8.87;;;3.70;;
15363;SDS011;7781;49.690;6.472;2023-06-22T14:13:48;9.37;;;3.50;;
15363;SDS011;7781;49.690;6.472;2023-06-22T14:16:17;8.90;;;3.30;;
15363;SDS011;7781;49.690;6.472;2023-06-22T14:18:45;9.70;;;3.50;;
15363;SDS011;7781;49.690;6.472;2023-06-22T14:21:17;9.40;;;3.00;;
15363;SDS011;7781;49.690;6.472;2023-06-22T14:23:46;8.80;;;3.70;;
15363;SDS011;7781;49.690;6.472;2023-06-22T14:26:16;6.03;;;3.33;;
15363;SDS011;7781;49.690;6.472;2023-06-22T14:28:45;6.10;;;3.10;;
15363;SDS011;7781;49.690;6.472;2023-06-22T14:31:16;6.50;;;3.33;;
15363;SDS011;7781;49.690;6.472;2023-06-22T14:33:46;7.17;;;3.57;;
15363;SDS011;7781;49.690;6.472;2023-06-22T14:36:17;6.00;;;3.40;;
15363;SDS011;7781;49.690;6.472;2023-06-22T14:38:45;6.47;;;3.30;;
15363;SDS011;7781;49.690;6.472;2023-06-22T14:41:15;8.03;;;3.20;;
15363;SDS011;7781;49.690;6.472;2023-06-22T14:43:45;5.13;;;3.60;;
15363;SDS011;7781;49.690;6.472;2023-06-22T14:46:15;5.80;;;3.13;;
15363;SDS011;7781;49.690;6.472;2023-06-22T14:48:44;5.40;;;3.10;;
15363;SDS011;7781;49.690;6.472;2023-06-22T14:51:12;6.80;;;3.20;;
15363;SDS011;7781;49.690;6.472;2023-06-22T14:53:45;6.87;;;3.20;;
15363;SDS011;7781;49.690;6.472;2023-06-22T14:56:13;3.93;;;2.57;;
15363;SDS011;7781;49.690;6.472;2023-06-22T14:58:43;8.87;;;3.00;;
15363;SDS011;7781;49.690;6.472;2023-06-22T15:01:13;7.83;;;3.30;;
15363;SDS011;7781;49.690;6.472;2023-06-22T15:03:45;3.80;;;2.70;;
15363;SDS011;7781;49.690;6.472;2023-06-22T15:06:13;5.70;;;2.93;;
15363;SDS011;7781;49.690;6.472;2023-06-22T15:08:43;6.17;;;2.67;;
15363;SDS011;7781;49.690;6.472;2023-06-22T15:11:12;5.90;;;2.73;;